sensor_id;sensor_type;location;lat;lon;timestamp;P1;durP1;ratioP1;P2;durP2;ratioP2
17636;SDS011;8937;51.236;6.794;2023-02-23T00:03:02;15.57;;;10.40;;
17636;SDS011;8937;51.236;6.794;2023-02-23T00:11:25;14.93;;;10.83;;
17636;SDS011;8937;51.236;6.794;2023-02-23T00:19:47;16.53;;;12.00;;
17636;SDS011;8937;51.236;6.794;2023-02-23T00:28:10;15.80;;;11.93;;
17636;SDS011;8937;51.236;6.794;2023-02-23T00:36:33;17.73;;;12.60;;
17636;SDS011;8937;51.236;6.794;2023-02-23T00:44:56;15.60;;;11.47;;
17636;SDS011;8937;51.236;6.794;2023-02-23T00:53:25;16.83;;;10.87;;
17636;SDS011;8937;51.236;6.794;2023-02-23T01:01:47;16.30;;;11.10;;
17636;SDS011;8937;51.236;6.794;2023-02-23T01:10:09;18.13;;;12.43;;
17636;SDS011;8937;51.236;6.794;2023-02-23T01:18:40;18.83;;;12.33;;
17636;SDS011;8937;51.236;6.794;2023-02-23T01:27:03;15.40;;;11.23;;
17636;SDS011;8937;51.236;6.794;2023-02-23T01:35:26;15.70;;;11.30;;
17636;SDS011;8937;51.236;6.794;2023-02-23T01:43:54;16.40;;;11.60;;
17636;SDS011;8937;51.236;6.794;2023-02-23T01:52:17;16.63;;;11.53;;
17636;SDS011;8937;51.236;6.794;2023-02-23T02:00:40;16.80;;;11.70;;
17636;SDS011;8937;51.236;6.794;2023-02-23T02:09:04;17.60;;;11.47;;
17636;SDS011;8937;51.236;6.794;2023-02-23T02:17:29;16.87;;;11.40;;
17636;SDS011;8937;51.236;6.794;2023-02-23T02:25:55;16.30;;;11.83;;
17636;SDS011;8937;51.236;6.794;2023-02-23T02:34:34;16.90;;;11.43;;
17636;SDS011;8937;51.236;6.794;2023-02-23T02:43:04;18.30;;;12.70;;
17636;SDS011;8937;51.236;6.794;2023-02-23T02:51:30;20.97;;;13.40;;
17636;SDS011;8937;51.236;6.794;2023-02-23T02:59:56;24.30;;;13.67;;
17636;SDS011;8937;51.236;6.794;2023-02-23T03:08:36;24.27;;;15.07;;
17636;SDS011;8937;51.236;6.794;2023-02-23T03:17:19;26.13;;;15.47;;
17636;SDS011;8937;51.236;6.794;2023-02-23T03:26:02;23.27;;;14.07;;
17636;SDS011;8937;51.236;6.794;2023-02-23T03:34:45;20.63;;;13.90;;
17636;SDS011;8937;51.236;6.794;2023-02-23T03:43:26;25.27;;;14.80;;
17636;SDS011;8937;51.236;6.794;2023-02-23T03:52:10;24.57;;;15.60;;
17636;SDS011;8937;51.236;6.794;2023-02-23T04:00:51;23.87;;;13.30;;
17636;SDS011;8937;51.236;6.794;2023-02-23T04:09:32;25.03;;;14.80;;
17636;SDS011;8937;51.236;6.794;2023-02-23T04:18:12;21.13;;;13.87;;
17636;SDS011;8937;51.236;6.794;2023-02-23T04:26:35;20.47;;;12.90;;
17636;SDS011;8937;51.236;6.794;2023-02-23T04:34:57;24.77;;;14.17;;
17636;SDS011;8937;51.236;6.794;2023-02-23T04:43:24;20.93;;;13.83;;
17636;SDS011;8937;51.236;6.794;2023-02-23T04:51:46;24.20;;;14.10;;
17636;SDS011;8937;51.236;6.794;2023-02-23T05:00:09;21.03;;;12.70;;
17636;SDS011;8937;51.236;6.794;2023-02-23T05:08:31;20.87;;;12.57;;
17636;SDS011;8937;51.236;6.794;2023-02-23T05:16:53;22.97;;;13.93;;
17636;SDS011;8937;51.236;6.794;2023-02-23T05:25:15;20.33;;;13.37;;
17636;SDS011;8937;51.236;6.794;2023-02-23T05:33:38;20.77;;;13.37;;
17636;SDS011;8937;51.236;6.794;2023-02-23T05:42:01;21.23;;;13.33;;
17636;SDS011;8937;51.236;6.794;2023-02-23T05:50:24;22.80;;;14.70;;
17636;SDS011;8937;51.236;6.794;2023-02-23T05:58:46;23.07;;;14.30;;
17636;SDS011;8937;51.236;6.794;2023-02-23T06:07:08;25.50;;;15.40;;
17636;SDS011;8937;51.236;6.794;2023-02-23T06:15:30;23.10;;;13.97;;
17636;SDS011;8937;51.236;6.794;2023-02-23T06:23:53;27.23;;;16.20;;
17636;SDS011;8937;51.236;6.794;2023-02-23T06:32:14;26.73;;;15.73;;
17636;SDS011;8937;51.236;6.794;2023-02-23T06:40:37;24.57;;;14.00;;
17636;SDS011;8937;51.236;6.794;2023-02-23T06:48:59;23.13;;;13.83;;
17636;SDS011;8937;51.236;6.794;2023-02-23T06:57:21;24.03;;;14.97;;
17636;SDS011;8937;51.236;6.794;2023-02-23T07:05:43;23.83;;;15.07;;
17636;SDS011;8937;51.236;6.794;2023-02-23T07:14:07;23.60;;;13.90;;
17636;SDS011;8937;51.236;6.794;2023-02-23T07:22:29;20.70;;;13.20;;
17636;SDS011;8937;51.236;6.794;2023-02-23T07:30:55;22.17;;;14.43;;
17636;SDS011;8937;51.236;6.794;2023-02-23T07:39:16;19.33;;;13.20;;
17636;SDS011;8937;51.236;6.794;2023-02-23T07:47:39;21.00;;;14.17;;
17636;SDS011;8937;51.236;6.794;2023-02-23T07:56:01;20.87;;;12.90;;
17636;SDS011;8937;51.236;6.794;2023-02-23T08:04:24;19.27;;;12.33;;
17636;SDS011;8937;51.236;6.794;2023-02-23T08:12:45;17.20;;;10.87;;
17636;SDS011;8937;51.236;6.794;2023-02-23T08:21:08;28.23;;;15.10;;
17636;SDS011;8937;51.236;6.794;2023-02-23T08:29:30;32.40;;;18.23;;
17636;SDS011;8937;51.236;6.794;2023-02-23T08:37:52;34.63;;;18.93;;
17636;SDS011;8937;51.236;6.794;2023-02-23T08:46:14;42.23;;;21.33;;
17636;SDS011;8937;51.236;6.794;2023-02-23T08:54:39;35.30;;;19.03;;
17636;SDS011;8937;51.236;6.794;2023-02-23T09:03:00;33.90;;;17.83;;
17636;SDS011;8937;51.236;6.794;2023-02-23T09:11:24;37.77;;;19.30;;
17636;SDS011;8937;51.236;6.794;2023-02-23T09:19:45;31.13;;;16.43;;
17636;SDS011;8937;51.236;6.794;2023-02-23T09:28:08;31.83;;;18.30;;
17636;SDS011;8937;51.236;6.794;2023-02-23T09:36:31;31.47;;;18.27;;
17636;SDS011;8937;51.236;6.794;2023-02-23T09:44:56;27.53;;;14.77;;
17636;SDS011;8937;51.236;6.794;2023-02-23T09:53:24;24.67;;;14.50;;
17636;SDS011;8937;51.236;6.794;2023-02-23T10:01:52;26.63;;;14.60;;
17636;SDS011;8937;51.236;6.794;2023-02-23T10:10:19;26.00;;;14.27;;
17636;SDS011;8937;51.236;6.794;2023-02-23T10:18:45;22.93;;;12.97;;
17636;SDS011;8937;51.236;6.794;2023-02-23T10:27:09;20.63;;;11.87;;
17636;SDS011;8937;51.236;6.794;2023-02-23T10:35:35;23.93;;;12.00;;
17636;SDS011;8937;51.236;6.794;2023-02-23T10:43:57;22.60;;;12.93;;
17636;SDS011;8937;51.236;6.794;2023-02-23T10:52:21;28.10;;;15.30;;
17636;SDS011;8937;51.236;6.794;2023-02-23T11:00:50;28.67;;;14.13;;
17636;SDS011;8937;51.236;6.794;2023-02-23T11:09:21;28.17;;;13.60;;
17636;SDS011;8937;51.236;6.794;2023-02-23T11:17:42;24.63;;;13.17;;
17636;SDS011;8937;51.236;6.794;2023-02-23T11:26:14;21.63;;;11.97;;
17636;SDS011;8937;51.236;6.794;2023-02-23T11:34:41;24.93;;;12.63;;
17636;SDS011;8937;51.236;6.794;2023-02-23T11:43:07;24.50;;;13.80;;
17636;SDS011;8937;51.236;6.794;2023-02-23T11:51:30;29.97;;;15.60;;
17636;SDS011;8937;51.236;6.794;2023-02-23T11:59:53;33.00;;;15.87;;
17636;SDS011;8937;51.236;6.794;2023-02-23T12:08:16;24.13;;;12.73;;
17636;SDS011;8937;51.236;6.794;2023-02-23T12:16:41;23.43;;;13.00;;
17636;SDS011;8937;51.236;6.794;2023-02-23T12:25:09;20.70;;;11.60;;
17636;SDS011;8937;51.236;6.794;2023-02-23T12:33:35;25.00;;;12.53;;
17636;SDS011;8937;51.236;6.794;2023-02-23T12:42:00;20.63;;;10.53;;
17636;SDS011;8937;51.236;6.794;2023-02-23T12:50:26;24.70;;;12.97;;
17636;SDS011;8937;51.236;6.794;2023-02-23T12:58:49;18.90;;;11.10;;
17636;SDS011;8937;51.236;6.794;2023-02-23T13:07:17;19.87;;;10.27;;
17636;SDS011;8937;51.236;6.794;2023-02-23T13:15:45;16.70;;;8.63;;
17636;SDS011;8937;51.236;6.794;2023-02-23T13:24:13;14.93;;;8.27;;
17636;SDS011;8937;51.236;6.794;2023-02-23T13:32:38;14.33;;;7.97;;
17636;SDS011;8937;51.236;6.794;2023-02-23T13:41:04;12.77;;;7.93;;
17636;SDS011;8937;51.236;6.794;2023-02-23T13:49:33;22.20;;;11.93;;
17636;SDS011;8937;51.236;6.794;2023-02-23T13:58:04;19.47;;;10.70;;
17636;SDS011;8937;51.236;6.794;2023-02-23T14:06:26;16.30;;;9.80;;
17636;SDS011;8937;51.236;6.794;2023-02-23T14:14:49;19.97;;;9.57;;
17636;SDS011;8937;51.236;6.794;2023-02-23T14:23:15;18.43;;;10.23;;
17636;SDS011;8937;51.236;6.794;2023-02-23T14:31:51;17.40;;;10.40;;
17636;SDS011;8937;51.236;6.794;2023-02-23T14:40:13;17.50;;;9.50;;
17636;SDS011;8937;51.236;6.794;2023-02-23T14:48:37;18.83;;;8.97;;
17636;SDS011;8937;51.236;6.794;2023-02-23T14:57:00;19.53;;;10.40;;
17636;SDS011;8937;51.236;6.794;2023-02-23T15:05:24;21.70;;;11.93;;
17636;SDS011;8937;51.236;6.794;2023-02-23T15:13:46;21.77;;;10.90;;
17636;SDS011;8937;51.236;6.794;2023-02-23T15:22:14;19.80;;;10.83;;
17636;SDS011;8937;51.236;6.794;2023-02-23T15:30:43;20.03;;;10.30;;
17636;SDS011;8937;51.236;6.794;2023-02-23T15:39:06;20.77;;;9.17;;
17636;SDS011;8937;51.236;6.794;2023-02-23T15:47:30;17.07;;;9.73;;
17636;SDS011;8937;51.236;6.794;2023-02-23T15:55:54;14.73;;;8.07;;
17636;SDS011;8937;51.236;6.794;2023-02-23T16:04:22;16.43;;;9.37;;
17636;SDS011;8937;51.236;6.794;2023-02-23T16:12:45;18.40;;;10.00;;
17636;SDS011;8937;51.236;6.794;2023-02-23T16:21:10;15.97;;;8.20;;
17636;SDS011;8937;51.236;6.794;2023-02-23T16:29:38;11.90;;;7.00;;
17636;SDS011;8937;51.236;6.794;2023-02-23T16:38:01;12.90;;;6.87;;
17636;SDS011;8937;51.236;6.794;2023-02-23T16:46:26;11.67;;;6.57;;
17636;SDS011;8937;51.236;6.794;2023-02-23T16:54:49;13.20;;;7.07;;
17636;SDS011;8937;51.236;6.794;2023-02-23T17:03:16;10.10;;;6.03;;
17636;SDS011;8937;51.236;6.794;2023-02-23T17:11:39;11.07;;;6.37;;
17636;SDS011;8937;51.236;6.794;2023-02-23T17:20:02;9.60;;;5.53;;
17636;SDS011;8937;51.236;6.794;2023-02-23T17:28:24;17.10;;;9.47;;
17636;SDS011;8937;51.236;6.794;2023-02-23T17:36:47;13.20;;;7.87;;
17636;SDS011;8937;51.236;6.794;2023-02-23T17:54:07;14.27;;;8.27;;
17636;SDS011;8937;51.236;6.794;2023-02-23T18:02:29;12.47;;;7.40;;
17636;SDS011;8937;51.236;6.794;2023-02-23T18:10:52;17.37;;;9.20;;
17636;SDS011;8937;51.236;6.794;2023-02-23T18:19:13;15.20;;;8.60;;
17636;SDS011;8937;51.236;6.794;2023-02-23T18:27:36;14.13;;;6.83;;
17636;SDS011;8937;51.236;6.794;2023-02-23T18:35:57;12.13;;;7.07;;
17636;SDS011;8937;51.236;6.794;2023-02-23T18:44:20;9.80;;;5.93;;
17636;SDS011;8937;51.236;6.794;2023-02-23T18:52:42;17.10;;;7.50;;
17636;SDS011;8937;51.236;6.794;2023-02-23T19:01:10;12.73;;;6.70;;
17636;SDS011;8937;51.236;6.794;2023-02-23T19:09:31;14.63;;;6.40;;
17636;SDS011;8937;51.236;6.794;2023-02-23T19:17:54;8.07;;;4.63;;
17636;SDS011;8937;51.236;6.794;2023-02-23T19:26:16;9.50;;;5.60;;
17636;SDS011;8937;51.236;6.794;2023-02-23T19:34:39;11.03;;;6.17;;
17636;SDS011;8937;51.236;6.794;2023-02-23T19:43:00;8.90;;;5.17;;
17636;SDS011;8937;51.236;6.794;2023-02-23T19:51:23;12.10;;;6.20;;
17636;SDS011;8937;51.236;6.794;2023-02-23T19:59:45;8.77;;;5.03;;
17636;SDS011;8937;51.236;6.794;2023-02-23T20:08:08;12.77;;;5.37;;
17636;SDS011;8937;51.236;6.794;2023-02-23T20:16:29;7.93;;;4.97;;
17636;SDS011;8937;51.236;6.794;2023-02-23T20:24:52;8.27;;;4.67;;
17636;SDS011;8937;51.236;6.794;2023-02-23T20:33:15;10.27;;;5.77;;
17636;SDS011;8937;51.236;6.794;2023-02-23T20:41:38;9.20;;;5.70;;
17636;SDS011;8937;51.236;6.794;2023-02-23T20:50:02;9.80;;;4.87;;
17636;SDS011;8937;51.236;6.794;2023-02-23T20:58:25;7.53;;;4.60;;
17636;SDS011;8937;51.236;6.794;2023-02-23T21:06:48;9.30;;;5.43;;
17636;SDS011;8937;51.236;6.794;2023-02-23T21:15:11;7.93;;;4.70;;
17636;SDS011;8937;51.236;6.794;2023-02-23T21:23:33;7.10;;;4.87;;
17636;SDS011;8937;51.236;6.794;2023-02-23T21:31:56;14.83;;;7.40;;
17636;SDS011;8937;51.236;6.794;2023-02-23T21:40:18;11.77;;;7.33;;
17636;SDS011;8937;51.236;6.794;2023-02-23T21:48:41;14.07;;;8.50;;
17636;SDS011;8937;51.236;6.794;2023-02-23T21:57:03;7.70;;;5.63;;
17636;SDS011;8937;51.236;6.794;2023-02-23T22:05:26;6.23;;;4.50;;
17636;SDS011;8937;51.236;6.794;2023-02-23T22:13:48;5.93;;;4.07;;
17636;SDS011;8937;51.236;6.794;2023-02-23T22:22:11;4.50;;;3.23;;
17636;SDS011;8937;51.236;6.794;2023-02-23T22:30:32;3.47;;;2.80;;
17636;SDS011;8937;51.236;6.794;2023-02-23T22:38:57;5.07;;;3.30;;
17636;SDS011;8937;51.236;6.794;2023-02-23T22:47:18;4.03;;;2.80;;
17636;SDS011;8937;51.236;6.794;2023-02-23T22:55:44;8.37;;;2.73;;
17636;SDS011;8937;51.236;6.794;2023-02-23T23:04:05;5.57;;;2.77;;
17636;SDS011;8937;51.236;6.794;2023-02-23T23:12:31;9.57;;;4.00;;
17636;SDS011;8937;51.236;6.794;2023-02-23T23:20:53;6.90;;;3.20;;
17636;SDS011;8937;51.236;6.794;2023-02-23T23:29:16;9.23;;;3.80;;
17636;SDS011;8937;51.236;6.794;2023-02-23T23:37:37;15.07;;;4.43;;
17636;SDS011;8937;51.236;6.794;2023-02-23T23:46:03;14.83;;;4.50;;
17636;SDS011;8937;51.236;6.794;2023-02-23T23:54:25;7.60;;;3.43;;
